Aeroporto :
LOGIN :

Iscrizione | Disclaimer

   EN    FR    IT 

 










Sommario :    VFR   VFR Marginale   IFR   IFR Intensivo   IFR Molto Intensivo
Visibilità : 
Base nubi : 
>= 8 km
>= 3000ft
5 / 8 km
1000 / 3000 ft
1500m / 5 km
500 / 1000 ft
800 / 1500m
200 / 500 ft
< 800m
< 200 ft
Simboli :   Temporali  Nebbia  Neve Forte  Precipitazioni Forti  Vento > 20 kt
SIGMETs :   Varie  Temporali  Ghiacco  Turbolenza  Onda orograficha  Ceneri Vulcaniche






- Altitudine del aeroporto : 648 ft
- Codice IATA : INI


LYNI - Nis Constantine

ULTIMO METAR :
  • 240930Z VRB02KT 9999 SCT037 17/08 Q1006 NOSIG

METARs OBSOLETI :
  • 240900Z VRB02KT 9999 SCT033 16/09 Q1006 NOSIG
  • 240830Z VRB05KT 9999 FEW027 16/10 Q1010 NOSIG
  • 240800Z 19004KT 120V250 9999 FEW023 16/10 Q1007 NOSIG
  • 240730Z VRB03KT 9999 FEW0023 15/11 Q1006 NOSIG
  • 240700Z VRB02KT 9999 FEW017 14/11 Q1007 NOSIG
  • 240630Z 18003KT 120V230 9999 FEW010 12/10 Q1007 NOSIG
  • 240600Z 18003KT 120V230 9999 FEW009 11/10 Q1007 NOSIG
  • 240530Z 15003KT 100V180 9999 FEW006 10/10 Q1007 NOSIG
  • 240500Z 10003KT 9999 3000E FEW004 09/09 Q1007 NOSIG

TAF TAF LYNI
Valido dal 24 a 06 ore il 25 a 06 ore UTC


240500Z 2406/2506 VRB02KT 9999 SCT027 TX21/2414Z TN06/2502Z
TEMPO 2406/2408 3000 BR
BECMG 2407/2409 21010KT
BECMG 2418/2420 32006KT
BECMG 2502/2504 5000 RA BKN015 BKN030



MetMap, La meteo Aeronautica in un colpo d'occhio ! - Copyright ORBIFLY Dicembre 2007 - Disclaimer

ORBIFLY MET'MAP TEAM :

Programmazione e sviluppo : Alexandra Zaïnal
Concezione : Baudouin d'Aumeries
Supporto tecnico e logistico : Manuel Goepfert
Aiuto : Marc-Olivier Méhu
Aiuto per la traduzione : Arnaldo La Scala




FONTI E CREDITI :

   NOAA